sensor_id;sensor_type;location;lat;lon;timestamp;temperature;humidity
53422;DHT22;39319;52.944;5.928;2023-03-12T00:00:46;2.40;96.40
53422;DHT22;39319;52.944;5.928;2023-03-12T00:03:13;2.60;96.60
53422;DHT22;39319;52.944;5.928;2023-03-12T00:05:41;2.60;96.60
53422;DHT22;39319;52.944;5.928;2023-03-12T00:08:08;3.20;96.80
53422;DHT22;39319;52.944;5.928;2023-03-12T00:10:34;2.20;96.50
53422;DHT22;39319;52.944;5.928;2023-03-12T00:13:00;2.40;96.60
53422;DHT22;39319;52.944;5.928;2023-03-12T00:15:26;2.80;96.80
53422;DHT22;39319;52.944;5.928;2023-03-12T00:17:52;2.90;96.90
53422;DHT22;39319;52.944;5.928;2023-03-12T00:20:18;3.20;96.90
53422;DHT22;39319;52.944;5.928;2023-03-12T00:22:44;2.70;96.70
53422;DHT22;39319;52.944;5.928;2023-03-12T00:25:11;2.50;96.80
53422;DHT22;39319;52.944;5.928;2023-03-12T00:27:38;2.80;96.90
53422;DHT22;39319;52.944;5.928;2023-03-12T00:30:07;2.60;96.90
53422;DHT22;39319;52.944;5.928;2023-03-12T00:32:33;2.40;96.70
53422;DHT22;39319;52.944;5.928;2023-03-12T00:34:59;3.00;97.00
53422;DHT22;39319;52.944;5.928;2023-03-12T00:37:25;2.90;97.00
53422;DHT22;39319;52.944;5.928;2023-03-12T00:39:51;2.30;97.00
53422;DHT22;39319;52.944;5.928;2023-03-12T00:42:18;2.60;97.00
53422;DHT22;39319;52.944;5.928;2023-03-12T00:44:44;2.20;97.00
53422;DHT22;39319;52.944;5.928;2023-03-12T00:47:10;2.50;97.10
53422;DHT22;39319;52.944;5.928;2023-03-12T00:49:36;2.60;97.20
53422;DHT22;39319;52.944;5.928;2023-03-12T00:52:03;3.30;97.40
53422;DHT22;39319;52.944;5.928;2023-03-12T00:54:29;2.40;97.10
53422;DHT22;39319;52.944;5.928;2023-03-12T00:56:54;2.60;97.30
53422;DHT22;39319;52.944;5.928;2023-03-12T00:59:20;2.60;97.40
53422;DHT22;39319;52.944;5.928;2023-03-12T01:01:48;2.70;97.50
53422;DHT22;39319;52.944;5.928;2023-03-12T01:04:14;2.60;97.40
53422;DHT22;39319;52.944;5.928;2023-03-12T01:06:42;2.50;97.60
53422;DHT22;39319;52.944;5.928;2023-03-12T01:09:10;3.20;97.80
53422;DHT22;39319;52.944;5.928;2023-03-12T01:11:37;2.80;97.80
53422;DHT22;39319;52.944;5.928;2023-03-12T01:14:05;2.60;97.70
53422;DHT22;39319;52.944;5.928;2023-03-12T01:16:31;2.80;97.80
53422;DHT22;39319;52.944;5.928;2023-03-12T01:18:58;3.10;97.60
53422;DHT22;39319;52.944;5.928;2023-03-12T01:21:25;2.80;97.70
53422;DHT22;39319;52.944;5.928;2023-03-12T01:23:51;2.60;97.70
53422;DHT22;39319;52.944;5.928;2023-03-12T01:26:17;2.80;97.80
53422;DHT22;39319;52.944;5.928;2023-03-12T01:28:43;3.10;97.90
53422;DHT22;39319;52.944;5.928;2023-03-12T01:31:14;2.50;97.80
53422;DHT22;39319;52.944;5.928;2023-03-12T01:33:40;3.30;98.10
53422;DHT22;39319;52.944;5.928;2023-03-12T01:36:16;3.30;98.10
53422;DHT22;39319;52.944;5.928;2023-03-12T01:38:42;2.70;98.00
53422;DHT22;39319;52.944;5.928;2023-03-12T01:41:08;3.20;98.10
53422;DHT22;39319;52.944;5.928;2023-03-12T01:43:36;3.10;98.20
53422;DHT22;39319;52.944;5.928;2023-03-12T01:46:42;2.80;98.20
53422;DHT22;39319;52.944;5.928;2023-03-12T01:49:23;2.50;98.10
53422;DHT22;39319;52.944;5.928;2023-03-12T01:52:08;2.80;98.00
53422;DHT22;39319;52.944;5.928;2023-03-12T01:55:08;2.70;97.70
53422;DHT22;39319;52.944;5.928;2023-03-12T01:57:40;2.80;97.90
53422;DHT22;39319;52.944;5.928;2023-03-12T02:00:15;2.60;98.30
53422;DHT22;39319;52.944;5.928;2023-03-12T02:02:43;2.80;98.30
53422;DHT22;39319;52.944;5.928;2023-03-12T02:08:12;2.70;98.00
53422;DHT22;39319;52.944;5.928;2023-03-12T02:10:39;3.00;98.60
53422;DHT22;39319;52.944;5.928;2023-03-12T02:13:05;3.30;98.60
53422;DHT22;39319;52.944;5.928;2023-03-12T02:15:33;3.30;98.60
53422;DHT22;39319;52.944;5.928;2023-03-12T02:18:04;3.00;98.50
53422;DHT22;39319;52.944;5.928;2023-03-12T02:23:29;3.30;98.10
53422;DHT22;39319;52.944;5.928;2023-03-12T02:25:57;3.10;98.00
53422;DHT22;39319;52.944;5.928;2023-03-12T02:28:27;2.90;98.40
53422;DHT22;39319;52.944;5.928;2023-03-12T02:30:57;4.00;98.50
53422;DHT22;39319;52.944;5.928;2023-03-12T02:33:24;3.20;98.40
53422;DHT22;39319;52.944;5.928;2023-03-12T02:35:51;3.30;98.10
53422;DHT22;39319;52.944;5.928;2023-03-12T02:41:04;3.90;98.40
53422;DHT22;39319;52.944;5.928;2023-03-12T02:43:32;3.10;97.70
53422;DHT22;39319;52.944;5.928;2023-03-12T02:45:58;3.20;98.10
53422;DHT22;39319;52.944;5.928;2023-03-12T02:48:24;3.30;98.10
53422;DHT22;39319;52.944;5.928;2023-03-12T02:50:49;3.50;97.90
53422;DHT22;39319;52.944;5.928;2023-03-12T02:53:15;3.50;98.10
53422;DHT22;39319;52.944;5.928;2023-03-12T02:55:43;3.30;98.10
53422;DHT22;39319;52.944;5.928;2023-03-12T02:58:09;4.00;98.30
53422;DHT22;39319;52.944;5.928;2023-03-12T03:00:35;3.50;98.10
53422;DHT22;39319;52.944;5.928;2023-03-12T03:03:02;3.10;98.10
53422;DHT22;39319;52.944;5.928;2023-03-12T03:05:28;3.30;98.00
53422;DHT22;39319;52.944;5.928;2023-03-12T03:07:54;3.30;98.00
53422;DHT22;39319;52.944;5.928;2023-03-12T03:10:19;3.60;98.00
53422;DHT22;39319;52.944;5.928;2023-03-12T03:12:45;3.50;97.90
53422;DHT22;39319;52.944;5.928;2023-03-12T03:15:12;4.00;98.00
53422;DHT22;39319;52.944;5.928;2023-03-12T03:17:37;3.20;97.50
53422;DHT22;39319;52.944;5.928;2023-03-12T03:20:05;3.50;97.70
53422;DHT22;39319;52.944;5.928;2023-03-12T03:22:35;3.20;97.30
53422;DHT22;39319;52.944;5.928;2023-03-12T03:25:01;3.40;97.20
53422;DHT22;39319;52.944;5.928;2023-03-12T03:27:27;3.60;97.20
53422;DHT22;39319;52.944;5.928;2023-03-12T03:29:53;3.40;97.30
53422;DHT22;39319;52.944;5.928;2023-03-12T03:32:19;3.60;97.20
53422;DHT22;39319;52.944;5.928;2023-03-12T03:34:47;3.30;97.20
53422;DHT22;39319;52.944;5.928;2023-03-12T03:37:13;3.40;97.20
53422;DHT22;39319;52.944;5.928;2023-03-12T03:39:38;3.40;97.10
53422;DHT22;39319;52.944;5.928;2023-03-12T03:42:04;3.50;97.00
53422;DHT22;39319;52.944;5.928;2023-03-12T03:44:30;3.50;97.10
53422;DHT22;39319;52.944;5.928;2023-03-12T03:46:58;3.90;96.80
53422;DHT22;39319;52.944;5.928;2023-03-12T03:49:24;3.50;96.90
53422;DHT22;39319;52.944;5.928;2023-03-12T03:51:50;4.10;97.00
53422;DHT22;39319;52.944;5.928;2023-03-12T03:54:17;3.60;96.70
53422;DHT22;39319;52.944;5.928;2023-03-12T03:56:45;3.60;96.90
53422;DHT22;39319;52.944;5.928;2023-03-12T03:59:12;3.50;96.80
53422;DHT22;39319;52.944;5.928;2023-03-12T04:01:38;3.40;96.80
53422;DHT22;39319;52.944;5.928;2023-03-12T04:04:04;3.40;96.80
53422;DHT22;39319;52.944;5.928;2023-03-12T04:06:30;3.80;96.70
53422;DHT22;39319;52.944;5.928;2023-03-12T04:08:57;3.60;96.70
53422;DHT22;39319;52.944;5.928;2023-03-12T04:11:23;3.60;96.50
53422;DHT22;39319;52.944;5.928;2023-03-12T04:13:49;3.60;96.50
53422;DHT22;39319;52.944;5.928;2023-03-12T04:16:15;3.50;96.50
53422;DHT22;39319;52.944;5.928;2023-03-12T04:18:41;3.70;96.50
53422;DHT22;39319;52.944;5.928;2023-03-12T04:21:09;4.40;96.70
53422;DHT22;39319;52.944;5.928;2023-03-12T04:23:35;3.90;96.90
53422;DHT22;39319;52.944;5.928;2023-03-12T04:26:01;4.20;96.80
53422;DHT22;39319;52.944;5.928;2023-03-12T04:28:27;3.60;96.40
53422;DHT22;39319;52.944;5.928;2023-03-12T04:30:57;3.80;96.70
53422;DHT22;39319;52.944;5.928;2023-03-12T04:33:27;3.50;97.10
53422;DHT22;39319;52.944;5.928;2023-03-12T04:35:53;4.00;96.80
53422;DHT22;39319;52.944;5.928;2023-03-12T04:38:21;3.80;96.50
53422;DHT22;39319;52.944;5.928;2023-03-12T04:40:55;4.50;96.90
53422;DHT22;39319;52.944;5.928;2023-03-12T04:43:21;3.50;96.60
53422;DHT22;39319;52.944;5.928;2023-03-12T04:45:47;4.40;96.80
53422;DHT22;39319;52.944;5.928;2023-03-12T04:48:13;3.60;96.40
53422;DHT22;39319;52.944;5.928;2023-03-12T04:50:39;3.60;96.40
53422;DHT22;39319;52.944;5.928;2023-03-12T04:53:05;3.50;96.50
53422;DHT22;39319;52.944;5.928;2023-03-12T04:55:30;3.70;96.30
53422;DHT22;39319;52.944;5.928;2023-03-12T04:57:56;3.90;96.40
53422;DHT22;39319;52.944;5.928;2023-03-12T05:00:22;3.90;96.20
53422;DHT22;39319;52.944;5.928;2023-03-12T05:02:47;3.70;96.20
53422;DHT22;39319;52.944;5.928;2023-03-12T05:05:13;3.90;96.10
53422;DHT22;39319;52.944;5.928;2023-03-12T05:07:39;4.60;96.60
53422;DHT22;39319;52.944;5.928;2023-03-12T05:10:07;3.70;96.60
53422;DHT22;39319;52.944;5.928;2023-03-12T05:12:33;3.60;96.40
53422;DHT22;39319;52.944;5.928;2023-03-12T05:14:59;3.70;96.20
53422;DHT22;39319;52.944;5.928;2023-03-12T05:17:25;3.70;96.00
53422;DHT22;39319;52.944;5.928;2023-03-12T05:19:50;3.70;96.20
53422;DHT22;39319;52.944;5.928;2023-03-12T05:22:16;4.30;96.60
53422;DHT22;39319;52.944;5.928;2023-03-12T05:24:42;3.70;96.10
53422;DHT22;39319;52.944;5.928;2023-03-12T05:27:08;3.90;96.20
53422;DHT22;39319;52.944;5.928;2023-03-12T05:29:34;3.80;96.10
53422;DHT22;39319;52.944;5.928;2023-03-12T05:32:01;3.60;96.40
53422;DHT22;39319;52.944;5.928;2023-03-12T05:34:27;4.30;96.70
53422;DHT22;39319;52.944;5.928;2023-03-12T05:36:55;4.50;96.80
53422;DHT22;39319;52.944;5.928;2023-03-12T05:39:22;3.60;96.70
53422;DHT22;39319;52.944;5.928;2023-03-12T05:41:47;3.80;96.80
53422;DHT22;39319;52.944;5.928;2023-03-12T05:44:14;3.90;96.90
53422;DHT22;39319;52.944;5.928;2023-03-12T05:46:41;3.70;97.00
53422;DHT22;39319;52.944;5.928;2023-03-12T05:49:08;5.10;97.10
53422;DHT22;39319;52.944;5.928;2023-03-12T05:51:34;3.90;97.10
53422;DHT22;39319;52.944;5.928;2023-03-12T05:54:00;3.80;96.60
53422;DHT22;39319;52.944;5.928;2023-03-12T05:56:26;3.80;96.50
53422;DHT22;39319;52.944;5.928;2023-03-12T05:58:52;3.70;96.20
53422;DHT22;39319;52.944;5.928;2023-03-12T06:01:23;3.70;96.30
53422;DHT22;39319;52.944;5.928;2023-03-12T06:03:51;4.00;96.20
53422;DHT22;39319;52.944;5.928;2023-03-12T06:06:17;3.70;96.40
53422;DHT22;39319;52.944;5.928;2023-03-12T06:08:44;3.70;96.40
53422;DHT22;39319;52.944;5.928;2023-03-12T06:11:10;3.70;96.30
53422;DHT22;39319;52.944;5.928;2023-03-12T06:13:36;3.70;96.20
53422;DHT22;39319;52.944;5.928;2023-03-12T06:16:03;4.40;96.00
53422;DHT22;39319;52.944;5.928;2023-03-12T06:18:30;3.80;95.80
53422;DHT22;39319;52.944;5.928;2023-03-12T06:21:07;3.80;96.10
53422;DHT22;39319;52.944;5.928;2023-03-12T06:23:32;4.10;96.30
53422;DHT22;39319;52.944;5.928;2023-03-12T06:25:58;4.00;96.10
53422;DHT22;39319;52.944;5.928;2023-03-12T06:28:24;3.90;96.20
53422;DHT22;39319;52.944;5.928;2023-03-12T06:30:52;3.90;96.50
53422;DHT22;39319;52.944;5.928;2023-03-12T06:33:18;4.10;96.60
53422;DHT22;39319;52.944;5.928;2023-03-12T06:35:43;3.90;96.30
53422;DHT22;39319;52.944;5.928;2023-03-12T06:38:10;4.40;96.60
53422;DHT22;39319;52.944;5.928;2023-03-12T06:40:36;4.30;96.50
53422;DHT22;39319;52.944;5.928;2023-03-12T06:43:02;3.70;96.70
53422;DHT22;39319;52.944;5.928;2023-03-12T06:45:28;4.10;96.80
53422;DHT22;39319;52.944;5.928;2023-03-12T06:47:53;4.30;96.80
53422;DHT22;39319;52.944;5.928;2023-03-12T06:50:19;3.80;96.90
53422;DHT22;39319;52.944;5.928;2023-03-12T06:52:45;3.60;96.90
53422;DHT22;39319;52.944;5.928;2023-03-12T06:55:10;4.30;97.10
53422;DHT22;39319;52.944;5.928;2023-03-12T06:57:36;4.90;97.40
53422;DHT22;39319;52.944;5.928;2023-03-12T07:00:03;4.00;97.20
53422;DHT22;39319;52.944;5.928;2023-03-12T07:02:29;3.90;97.30
53422;DHT22;39319;52.944;5.928;2023-03-12T07:04:55;4.10;97.50
53422;DHT22;39319;52.944;5.928;2023-03-12T07:07:21;3.80;97.50
53422;DHT22;39319;52.944;5.928;2023-03-12T07:09:46;3.80;97.60
53422;DHT22;39319;52.944;5.928;2023-03-12T07:12:12;4.10;97.80
53422;DHT22;39319;52.944;5.928;2023-03-12T07:14:38;3.90;98.10
53422;DHT22;39319;52.944;5.928;2023-03-12T07:17:03;4.80;98.00
53422;DHT22;39319;52.944;5.928;2023-03-12T07:19:29;3.90;97.90
53422;DHT22;39319;52.944;5.928;2023-03-12T07:21:55;4.60;98.10
53422;DHT22;39319;52.944;5.928;2023-03-12T07:24:22;4.00;98.10
53422;DHT22;39319;52.944;5.928;2023-03-12T07:26:48;3.90;98.10
53422;DHT22;39319;52.944;5.928;2023-03-12T07:29:13;4.60;98.40
53422;DHT22;39319;52.944;5.928;2023-03-12T07:31:41;4.30;98.40
53422;DHT22;39319;52.944;5.928;2023-03-12T07:34:09;4.00;98.30
53422;DHT22;39319;52.944;5.928;2023-03-12T07:36:35;4.80;98.60
53422;DHT22;39319;52.944;5.928;2023-03-12T07:39:00;4.80;98.70
53422;DHT22;39319;52.944;5.928;2023-03-12T07:41:26;4.00;98.50
53422;DHT22;39319;52.944;5.928;2023-03-12T07:43:52;4.30;98.50
53422;DHT22;39319;52.944;5.928;2023-03-12T07:46:17;3.70;98.40
53422;DHT22;39319;52.944;5.928;2023-03-12T07:48:43;4.20;98.70
53422;DHT22;39319;52.944;5.928;2023-03-12T07:51:09;3.90;98.80
53422;DHT22;39319;52.944;5.928;2023-03-12T07:53:35;4.00;98.90
53422;DHT22;39319;52.944;5.928;2023-03-12T07:56:00;4.10;98.70
53422;DHT22;39319;52.944;5.928;2023-03-12T07:58:26;4.10;98.90
53422;DHT22;39319;52.944;5.928;2023-03-12T08:00:54;4.30;99.10
53422;DHT22;39319;52.944;5.928;2023-03-12T08:03:20;4.30;99.20
53422;DHT22;39319;52.944;5.928;2023-03-12T08:05:58;4.00;99.20
53422;DHT22;39319;52.944;5.928;2023-03-12T08:08:24;3.90;98.80
53422;DHT22;39319;52.944;5.928;2023-03-12T08:10:49;4.70;99.50
53422;DHT22;39319;52.944;5.928;2023-03-12T08:13:15;3.80;99.20
53422;DHT22;39319;52.944;5.928;2023-03-12T08:15:42;4.20;99.40
53422;DHT22;39319;52.944;5.928;2023-03-12T08:18:08;3.80;99.30
53422;DHT22;39319;52.944;5.928;2023-03-12T08:20:33;4.10;99.30
53422;DHT22;39319;52.944;5.928;2023-03-12T08:22:59;4.30;99.50
53422;DHT22;39319;52.944;5.928;2023-03-12T08:25:25;4.30;99.60
53422;DHT22;39319;52.944;5.928;2023-03-12T08:27:51;5.00;99.70
53422;DHT22;39319;52.944;5.928;2023-03-12T08:30:16;4.30;99.70
53422;DHT22;39319;52.944;5.928;2023-03-12T08:32:42;3.90;99.70
53422;DHT22;39319;52.944;5.928;2023-03-12T08:35:08;4.20;99.90
53422;DHT22;39319;52.944;5.928;2023-03-12T08:37:35;4.30;99.90
53422;DHT22;39319;52.944;5.928;2023-03-12T08:40:01;4.20;99.90
53422;DHT22;39319;52.944;5.928;2023-03-12T08:42:33;4.30;99.90
53422;DHT22;39319;52.944;5.928;2023-03-12T08:44:59;4.20;99.90
53422;DHT22;39319;52.944;5.928;2023-03-12T08:47:24;4.40;99.90
53422;DHT22;39319;52.944;5.928;2023-03-12T08:49:50;4.50;99.90
53422;DHT22;39319;52.944;5.928;2023-03-12T08:52:16;4.30;99.90
53422;DHT22;39319;52.944;5.928;2023-03-12T08:54:41;4.00;99.90
53422;DHT22;39319;52.944;5.928;2023-03-12T08:57:07;4.50;99.90
53422;DHT22;39319;52.944;5.928;2023-03-12T08:59:35;4.10;99.90
53422;DHT22;39319;52.944;5.928;2023-03-12T09:02:01;4.30;99.90
53422;DHT22;39319;52.944;5.928;2023-03-12T09:04:26;4.10;99.90
53422;DHT22;39319;52.944;5.928;2023-03-12T09:06:52;5.10;99.90
53422;DHT22;39319;52.944;5.928;2023-03-12T09:09:18;4.00;99.90
53422;DHT22;39319;52.944;5.928;2023-03-12T09:11:43;4.10;99.90
53422;DHT22;39319;52.944;5.928;2023-03-12T09:14:09;4.20;99.90
53422;DHT22;39319;52.944;5.928;2023-03-12T09:16:35;4.40;99.90
53422;DHT22;39319;52.944;5.928;2023-03-12T09:19:01;4.70;99.90
53422;DHT22;39319;52.944;5.928;2023-03-12T09:21:30;4.40;99.90
53422;DHT22;39319;52.944;5.928;2023-03-12T09:23:55;4.80;99.90
53422;DHT22;39319;52.944;5.928;2023-03-12T09:26:22;4.60;99.90
53422;DHT22;39319;52.944;5.928;2023-03-12T09:28:48;5.10;99.90
53422;DHT22;39319;52.944;5.928;2023-03-12T09:31:14;4.70;99.90
53422;DHT22;39319;52.944;5.928;2023-03-12T09:33:43;4.60;99.90
53422;DHT22;39319;52.944;5.928;2023-03-12T09:36:08;4.60;99.90
53422;DHT22;39319;52.944;5.928;2023-03-12T09:38:34;4.50;99.90
53422;DHT22;39319;52.944;5.928;2023-03-12T09:41:10;4.90;99.90
53422;DHT22;39319;52.944;5.928;2023-03-12T09:43:57;4.60;99.90
53422;DHT22;39319;52.944;5.928;2023-03-12T09:46:38;4.90;99.90
53422;DHT22;39319;52.944;5.928;2023-03-12T09:49:17;4.60;99.90
53422;DHT22;39319;52.944;5.928;2023-03-12T09:51:48;4.50;99.90
53422;DHT22;39319;52.944;5.928;2023-03-12T09:54:40;4.70;99.90
53422;DHT22;39319;52.944;5.928;2023-03-12T09:57:12;4.90;99.90
53422;DHT22;39319;52.944;5.928;2023-03-12T09:59:39;5.00;99.90
53422;DHT22;39319;52.944;5.928;2023-03-12T10:02:22;5.00;99.90
53422;DHT22;39319;52.944;5.928;2023-03-12T10:04:56;4.90;99.90
53422;DHT22;39319;52.944;5.928;2023-03-12T10:07:25;4.70;99.90
53422;DHT22;39319;52.944;5.928;2023-03-12T10:12:46;4.60;99.90
53422;DHT22;39319;52.944;5.928;2023-03-12T10:26:23;4.90;99.90
53422;DHT22;39319;52.944;5.928;2023-03-12T10:28:48;4.90;99.90
53422;DHT22;39319;52.944;5.928;2023-03-12T10:31:20;5.20;99.90
53422;DHT22;39319;52.944;5.928;2023-03-12T10:36:48;5.90;99.90
53422;DHT22;39319;52.944;5.928;2023-03-12T10:39:18;5.10;99.90
53422;DHT22;39319;52.944;5.928;2023-03-12T10:41:46;5.20;99.90
53422;DHT22;39319;52.944;5.928;2023-03-12T10:44:20;5.50;99.90
53422;DHT22;39319;52.944;5.928;2023-03-12T10:47:00;5.30;99.90
53422;DHT22;39319;52.944;5.928;2023-03-12T10:49:36;5.40;99.90
53422;DHT22;39319;52.944;5.928;2023-03-12T10:54:44;5.70;99.90
53422;DHT22;39319;52.944;5.928;2023-03-12T10:57:11;5.70;99.90
53422;DHT22;39319;52.944;5.928;2023-03-12T10:59:40;5.60;99.90
53422;DHT22;39319;52.944;5.928;2023-03-12T11:02:27;5.60;99.90
53422;DHT22;39319;52.944;5.928;2023-03-12T11:04:53;5.90;99.90
53422;DHT22;39319;52.944;5.928;2023-03-12T11:07:33;5.50;99.90
53422;DHT22;39319;52.944;5.928;2023-03-12T11:10:26;5.80;99.90
53422;DHT22;39319;52.944;5.928;2023-03-12T11:15:48;6.10;99.90
53422;DHT22;39319;52.944;5.928;2023-03-12T11:20:44;6.10;99.90
53422;DHT22;39319;52.944;5.928;2023-03-12T11:23:20;6.00;99.90
53422;DHT22;39319;52.944;5.928;2023-03-12T11:25:51;6.20;99.90
53422;DHT22;39319;52.944;5.928;2023-03-12T11:28:22;6.20;99.90
53422;DHT22;39319;52.944;5.928;2023-03-12T11:30:49;6.30;99.90
53422;DHT22;39319;52.944;5.928;2023-03-12T11:33:16;6.30;99.90
53422;DHT22;39319;52.944;5.928;2023-03-12T11:51:52;6.90;99.90
53422;DHT22;39319;52.944;5.928;2023-03-12T11:54:52;7.30;99.90
53422;DHT22;39319;52.944;5.928;2023-03-12T12:00:20;7.20;99.90
53422;DHT22;39319;52.944;5.928;2023-03-12T12:06:11;7.60;99.90
53422;DHT22;39319;52.944;5.928;2023-03-12T12:08:52;7.50;99.90
53422;DHT22;39319;52.944;5.928;2023-03-12T12:23:21;8.10;99.90
53422;DHT22;39319;52.944;5.928;2023-03-12T12:36:53;8.30;99.90
53422;DHT22;39319;52.944;5.928;2023-03-12T12:39:37;8.40;99.90
53422;DHT22;39319;52.944;5.928;2023-03-12T12:42:06;8.40;99.90
53422;DHT22;39319;52.944;5.928;2023-03-12T12:44:42;8.60;99.90
53422;DHT22;39319;52.944;5.928;2023-03-12T12:47:13;8.50;99.90
53422;DHT22;39319;52.944;5.928;2023-03-12T12:49:47;8.50;99.90
53422;DHT22;39319;52.944;5.928;2023-03-12T12:52:19;8.90;99.90
53422;DHT22;39319;52.944;5.928;2023-03-12T12:55:11;8.80;99.90
53422;DHT22;39319;52.944;5.928;2023-03-12T12:58:04;8.80;99.90
53422;DHT22;39319;52.944;5.928;2023-03-12T13:00:45;8.90;99.90
53422;DHT22;39319;52.944;5.928;2023-03-12T13:03:15;9.30;99.90
53422;DHT22;39319;52.944;5.928;2023-03-12T13:06:00;9.10;99.90
53422;DHT22;39319;52.944;5.928;2023-03-12T13:11:21;9.30;99.90
53422;DHT22;39319;52.944;5.928;2023-03-12T13:16:37;9.50;99.90
53422;DHT22;39319;52.944;5.928;2023-03-12T13:27:18;9.50;99.90
53422;DHT22;39319;52.944;5.928;2023-03-12T13:29:45;9.40;99.90
53422;DHT22;39319;52.944;5.928;2023-03-12T13:35:30;9.60;99.90
53422;DHT22;39319;52.944;5.928;2023-03-12T13:38:02;9.60;99.90
53422;DHT22;39319;52.944;5.928;2023-03-12T13:43:16;9.80;99.90
53422;DHT22;39319;52.944;5.928;2023-03-12T13:46:04;9.80;99.90
53422;DHT22;39319;52.944;5.928;2023-03-12T13:48:31;9.80;99.90
53422;DHT22;39319;52.944;5.928;2023-03-12T13:51:01;9.90;99.90
53422;DHT22;39319;52.944;5.928;2023-03-12T13:53:36;10.10;99.90
53422;DHT22;39319;52.944;5.928;2023-03-12T13:56:13;9.70;99.90
53422;DHT22;39319;52.944;5.928;2023-03-12T14:01:16;9.50;99.90
53422;DHT22;39319;52.944;5.928;2023-03-12T14:03:49;9.80;99.90
53422;DHT22;39319;52.944;5.928;2023-03-12T14:06:20;9.60;99.90
53422;DHT22;39319;52.944;5.928;2023-03-12T14:09:11;9.70;99.90
53422;DHT22;39319;52.944;5.928;2023-03-12T14:14:53;9.90;99.90
53422;DHT22;39319;52.944;5.928;2023-03-12T14:17:26;9.80;99.90
53422;DHT22;39319;52.944;5.928;2023-03-12T14:20:00;10.00;99.90
53422;DHT22;39319;52.944;5.928;2023-03-12T14:22:32;9.80;99.90
53422;DHT22;39319;52.944;5.928;2023-03-12T14:25:04;9.70;99.90
53422;DHT22;39319;52.944;5.928;2023-03-12T14:27:32;9.70;99.90
53422;DHT22;39319;52.944;5.928;2023-03-12T14:30:11;9.50;99.90
53422;DHT22;39319;52.944;5.928;2023-03-12T14:32:41;9.70;99.90
53422;DHT22;39319;52.944;5.928;2023-03-12T14:35:21;9.60;99.90
53422;DHT22;39319;52.944;5.928;2023-03-12T14:38:09;9.80;99.90
53422;DHT22;39319;52.944;5.928;2023-03-12T14:41:02;9.90;99.90
53422;DHT22;39319;52.944;5.928;2023-03-12T14:43:31;11.00;99.90
53422;DHT22;39319;52.944;5.928;2023-03-12T14:46:02;9.60;99.90
53422;DHT22;39319;52.944;5.928;2023-03-12T14:48:34;10.10;99.90
53422;DHT22;39319;52.944;5.928;2023-03-12T14:51:02;9.80;99.90
53422;DHT22;39319;52.944;5.928;2023-03-12T14:58:28;9.80;99.90
53422;DHT22;39319;52.944;5.928;2023-03-12T15:01:10;10.10;99.90
53422;DHT22;39319;52.944;5.928;2023-03-12T15:03:43;9.90;99.90
53422;DHT22;39319;52.944;5.928;2023-03-12T15:06:46;10.30;99.90
53422;DHT22;39319;52.944;5.928;2023-03-12T15:09:25;10.20;99.90
53422;DHT22;39319;52.944;5.928;2023-03-12T15:11:59;10.20;99.90
53422;DHT22;39319;52.944;5.928;2023-03-12T15:14:29;10.10;99.90
53422;DHT22;39319;52.944;5.928;2023-03-12T15:16:57;10.30;99.90
53422;DHT22;39319;52.944;5.928;2023-03-12T15:19:28;10.30;99.90
53422;DHT22;39319;52.944;5.928;2023-03-12T15:21:56;10.40;99.90
53422;DHT22;39319;52.944;5.928;2023-03-12T15:24:22;10.40;99.90
53422;DHT22;39319;52.944;5.928;2023-03-12T15:26:48;10.30;99.90
53422;DHT22;39319;52.944;5.928;2023-03-12T15:31:58;10.00;99.90
53422;DHT22;39319;52.944;5.928;2023-03-12T15:34:35;10.10;99.90
53422;DHT22;39319;52.944;5.928;2023-03-12T15:37:03;9.70;99.90
53422;DHT22;39319;52.944;5.928;2023-03-12T15:39:47;10.20;99.90
53422;DHT22;39319;52.944;5.928;2023-03-12T15:42:19;9.70;99.90
53422;DHT22;39319;52.944;5.928;2023-03-12T15:44:48;10.20;99.90
53422;DHT22;39319;52.944;5.928;2023-03-12T15:47:28;10.10;99.90
53422;DHT22;39319;52.944;5.928;2023-03-12T15:50:21;10.20;99.90
53422;DHT22;39319;52.944;5.928;2023-03-12T15:55:29;10.10;99.90
53422;DHT22;39319;52.944;5.928;2023-03-12T15:57:56;10.00;99.90
53422;DHT22;39319;52.944;5.928;2023-03-12T16:03:01;10.30;99.90
53422;DHT22;39319;52.944;5.928;2023-03-12T16:05:38;10.20;99.90
53422;DHT22;39319;52.944;5.928;2023-03-12T16:08:15;10.20;99.90
53422;DHT22;39319;52.944;5.928;2023-03-12T16:10:42;10.20;99.90
53422;DHT22;39319;52.944;5.928;2023-03-12T16:13:13;10.10;99.90
53422;DHT22;39319;52.944;5.928;2023-03-12T16:15:39;10.10;99.90
53422;DHT22;39319;52.944;5.928;2023-03-12T16:18:13;10.30;99.90
53422;DHT22;39319;52.944;5.928;2023-03-12T16:20:40;10.40;99.90
53422;DHT22;39319;52.944;5.928;2023-03-12T16:23:06;10.30;99.90
53422;DHT22;39319;52.944;5.928;2023-03-12T16:25:32;10.20;99.90
53422;DHT22;39319;52.944;5.928;2023-03-12T16:28:01;10.20;99.90
53422;DHT22;39319;52.944;5.928;2023-03-12T16:30:30;10.00;99.90
53422;DHT22;39319;52.944;5.928;2023-03-12T16:32:59;10.20;99.90
53422;DHT22;39319;52.944;5.928;2023-03-12T16:35:26;10.20;99.90
53422;DHT22;39319;52.944;5.928;2023-03-12T16:37:58;10.30;99.90
53422;DHT22;39319;52.944;5.928;2023-03-12T16:40:27;10.10;99.90
53422;DHT22;39319;52.944;5.928;2023-03-12T16:42:53;9.80;99.90
53422;DHT22;39319;52.944;5.928;2023-03-12T16:45:20;9.90;99.90
53422;DHT22;39319;52.944;5.928;2023-03-12T16:47:51;9.80;99.90
53422;DHT22;39319;52.944;5.928;2023-03-12T16:50:20;10.20;99.90
53422;DHT22;39319;52.944;5.928;2023-03-12T16:52:48;9.80;99.90
53422;DHT22;39319;52.944;5.928;2023-03-12T16:55:20;9.60;99.90
53422;DHT22;39319;52.944;5.928;2023-03-12T16:57:57;9.60;99.90
53422;DHT22;39319;52.944;5.928;2023-03-12T17:00:27;9.90;99.90
53422;DHT22;39319;52.944;5.928;2023-03-12T17:02:53;9.60;99.90
53422;DHT22;39319;52.944;5.928;2023-03-12T17:05:22;9.90;99.90
53422;DHT22;39319;52.944;5.928;2023-03-12T17:07:48;9.70;99.90
53422;DHT22;39319;52.944;5.928;2023-03-12T17:10:14;9.80;99.90
53422;DHT22;39319;52.944;5.928;2023-03-12T17:12:41;10.00;99.90
53422;DHT22;39319;52.944;5.928;2023-03-12T17:15:14;9.90;99.90
53422;DHT22;39319;52.944;5.928;2023-03-12T17:17:40;9.70;99.90
53422;DHT22;39319;52.944;5.928;2023-03-12T17:20:07;9.70;99.90
53422;DHT22;39319;52.944;5.928;2023-03-12T17:22:35;9.80;99.90
53422;DHT22;39319;52.944;5.928;2023-03-12T17:25:02;9.70;99.90
53422;DHT22;39319;52.944;5.928;2023-03-12T17:27:30;9.60;99.90
53422;DHT22;39319;52.944;5.928;2023-03-12T17:29:56;9.80;99.90
53422;DHT22;39319;52.944;5.928;2023-03-12T17:32:21;9.60;99.90
53422;DHT22;39319;52.944;5.928;2023-03-12T17:34:53;9.70;99.90
53422;DHT22;39319;52.944;5.928;2023-03-12T17:37:19;9.50;99.90
53422;DHT22;39319;52.944;5.928;2023-03-12T17:39:45;9.60;99.90
53422;DHT22;39319;52.944;5.928;2023-03-12T17:42:12;9.70;99.90
53422;DHT22;39319;52.944;5.928;2023-03-12T17:44:37;9.50;99.90
53422;DHT22;39319;52.944;5.928;2023-03-12T17:47:03;9.60;99.90
53422;DHT22;39319;52.944;5.928;2023-03-12T17:49:29;9.50;99.90
53422;DHT22;39319;52.944;5.928;2023-03-12T17:51:56;9.60;99.90
53422;DHT22;39319;52.944;5.928;2023-03-12T17:54:22;9.50;99.90